North Island Naval Air Station-Halsey Field San Diego US
ICAO: KNZY
IATA: NZY
Category: Medium
Scheduled Services: No

Elevation: 26 ft
TransAlt. 18000 ft.

Airport Communications:
SOCAL APP/DEP:125.15
ATIS:31.78
CLNC DEL:128.4
GND:118
ARNG OPS:142.95
BASE OPS:35.55
PMSV METRO:34.235
TWR:135.1

KNZY Zoom In..

If you have problems with the map follow the link
https://www.worldairports.se/pages/airport.php?
ICAO=KNZY

Runways:

(A) RW 11 length 7500 ft width 200 ft
---- / hdg 108

(B) RW 18 length 8001 ft width 200 ft
---- / hdg 182

(C) RW 29 length 7500 ft width 200 ft
---- / hdg 288

(D) RW 36 length 8001 ft width 200 ft
---- / hdg 2

Location; KNZY
Day. 22 / Time. 14.52 Zulu
* Altimeter: 30.19
* Temperature: 12° c. 53.6°f.
* Wind from: 290° Speed 03 kn.
Dewpoint: 09° c.
Visibility: 10 Statute Miles.
Clouds: Few 2000 ft.
Clouds: Scattered 3500 ft.
Clouds: Broken 2000 ft.

KNZY 221452Z 29003KT 10SM FEW020 SCT035 BKN200 12/09 A3019 RMK AO2 SLP222 T01220094 53005 $


Wind From 290°
Speed 03 kn.

 
 
jpsmedia worldairports.se 2020   terms of use